Terminal Aerodrome Forecast
Issued by NWS

Home | Current Version | Previous Version | Text Only | Print | Product List | Glossary On
Versions: 1 2 3 4 5 6 7 8 9 10 11 12
000
FTUS46 KPDT 171100
TAFALW
TAF
KALW 171140Z 1712/1812 12006KT P6SM SCT150 BKN200
     FM171600 VRB05KT P6SM SCT120 BKN180
     FM172100 25008KT P6SM SCT070 BKN100
     FM180400 18008KT P6SM SCT120 OVC150=

USA.gov is the U.S. government's official web portal to all federal, state and local government web resources and services.